Time;durP1;ratioP1;P1;durP2;ratioP2;P2;SDS_P1;SDS_P2;PMS_P1;PMS_P2;Temp;Humidity;BMP_temperature;BMP_pressure;BME280_temperature;BME280_humidity;BME280_pressure;Samples;Min_cycle;Max_cycle;Signal;HPM_P1;HPM_P2
2023/07/20 00:01:03;;;;;;;2.25;1.05;;;18.40;91.80;;;;;;5091434;28;20032;-72
2023/07/20 00:03:29;;;;;;;3.20;0.90;;;18.40;91.80;;;;;;5093476;28;20044;-73
2023/07/20 00:05:55;;;;;;;2.22;1.10;;;18.40;91.80;;;;;;5093430;28;20040;-72
2023/07/20 00:08:20;;;;;;;2.72;1.00;;;18.30;91.90;;;;;;5094494;28;20158;-72
2023/07/20 00:10:46;;;;;;;3.75;0.98;;;18.30;91.90;;;;;;5094409;28;20067;-72
2023/07/20 00:13:12;;;;;;;2.33;1.10;;;18.30;91.90;;;;;;5094299;28;20043;-72
2023/07/20 00:15:38;;;;;;;2.85;1.00;;;18.30;91.90;;;;;;5094625;28;20040;-73
2023/07/20 00:18:06;;;;;;;2.03;1.05;;;18.30;92.00;;;;;;5093861;28;20043;-75
2023/07/20 00:20:32;;;;;;;2.15;1.05;;;18.20;92.00;;;;;;5093087;28;20055;-72
2023/07/20 00:22:58;;;;;;;2.78;1.10;;;18.20;92.00;;;;;;5072138;28;20131;-72
2023/07/20 00:25:24;;;;;;;1.33;0.95;;;18.20;91.80;;;;;;5075615;28;20066;-72
2023/07/20 00:27:50;;;;;;;1.98;0.90;;;18.20;92.00;;;;;;5092849;28;20490;-72
2023/07/20 00:30:19;;;;;;;1.90;1.08;;;18.20;92.00;;;;;;5075592;28;20058;-72
2023/07/20 00:32:45;;;;;;;2.75;1.20;;;18.20;92.10;;;;;;5093689;28;20047;-73
2023/07/20 00:35:13;;;;;;;2.25;1.08;;;18.20;92.00;;;;;;5093709;28;20387;-72
2023/07/20 00:37:40;;;;;;;2.30;0.98;;;18.20;92.10;;;;;;5094095;28;20070;-72
2023/07/20 00:40:07;;;;;;;2.35;1.05;;;18.20;92.10;;;;;;5093755;28;20052;-72
2023/07/20 00:42:34;;;;;;;1.85;1.00;;;18.20;92.10;;;;;;5093793;28;20040;-72
2023/07/20 00:45:00;;;;;;;2.42;1.00;;;18.20;92.20;;;;;;5072433;28;20105;-72
2023/07/20 00:47:27;;;;;;;2.22;1.10;;;18.20;92.00;;;;;;5092642;28;20052;-72
2023/07/20 00:49:54;;;;;;;1.95;1.00;;;18.10;92.00;;;;;;5093802;28;20410;-72
2023/07/20 00:52:23;;;;;;;2.85;1.13;;;18.10;91.80;;;;;;5074865;28;20481;-72
2023/07/20 00:54:49;;;;;;;3.28;1.27;;;18.10;91.90;;;;;;5093276;28;20097;-72
2023/07/20 00:57:16;;;;;;;2.38;1.17;;;18.10;92.10;;;;;;5093403;28;20409;-72
2023/07/20 00:59:42;;;;;;;1.75;0.98;;;18.00;91.90;;;;;;5093330;28;20044;-72
2023/07/20 01:02:07;;;;;;;2.30;1.30;;;18.00;91.80;;;;;;5092750;28;20043;-72
2023/07/20 01:04:34;;;;;;;3.22;1.15;;;18.00;92.00;;;;;;5093302;28;20040;-72
2023/07/20 01:07:14;;;;;;;2.80;1.20;;;18.00;92.10;;;;;;5092856;28;20047;-72
2023/07/20 01:09:45;;;;;;;3.42;1.33;;;17.90;91.90;;;;;;5092688;28;20532;-72
2023/07/20 01:12:27;;;;;;;2.42;1.10;;;17.90;92.10;;;;;;5081035;28;20067;-72
2023/07/20 01:14:54;;;;;;;2.67;1.20;;;17.90;91.90;;;;;;5075719;28;20104;-72
2023/07/20 01:17:19;;;;;;;2.10;1.17;;;17.90;92.30;;;;;;5093066;28;20174;-73
2023/07/20 01:19:45;;;;;;;2.67;1.20;;;17.90;92.30;;;;;;5092764;28;20544;-72
2023/07/20 01:22:28;;;;;;;2.33;1.17;;;17.80;92.20;;;;;;5092882;28;20036;-72
2023/07/20 01:25:06;;;;;;;;;;;17.80;92.00;;;;;;5093488;28;20048;-72
2023/07/20 01:28:08;;;;;;;3.33;1.30;;;17.70;91.40;;;;;;5093024;28;19920;-72
2023/07/20 01:30:49;;;;;;;2.53;1.20;;;17.70;91.90;;;;;;5092634;28;20453;-72
2023/07/20 01:33:16;;;;;;;3.22;1.10;;;17.70;92.00;;;;;;5093094;28;20126;-72
2023/07/20 01:35:44;;;;;;;1.77;1.23;;;17.60;92.20;;;;;;5092885;28;20084;-72
2023/07/20 01:38:12;;;;;;;3.10;1.30;;;17.60;92.20;;;;;;5092639;28;20048;-72
2023/07/20 01:40:39;;;;;;;1.95;1.20;;;17.60;92.30;;;;;;5074171;28;20044;-72
2023/07/20 01:43:04;;;;;;;2.63;1.48;;;17.60;92.40;;;;;;5092850;28;20126;-72
2023/07/20 01:45:30;;;;;;;3.22;1.42;;;17.50;92.50;;;;;;5092393;28;20111;-72
2023/07/20 01:47:56;;;;;;;2.58;1.30;;;17.50;92.50;;;;;;5092312;28;20493;-73
2023/07/20 01:50:21;;;;;;;3.08;1.50;;;17.50;92.50;;;;;;5092507;28;20505;-72
2023/07/20 01:52:48;;;;;;;2.65;1.10;;;17.50;92.50;;;;;;5092541;28;20044;-72
2023/07/20 01:55:13;;;;;;;2.95;1.50;;;17.40;92.50;;;;;;5074843;28;20051;-72
2023/07/20 01:57:39;;;;;;;3.50;1.40;;;17.40;92.60;;;;;;5092586;28;20036;-72
2023/07/20 02:00:09;;;;;;;3.47;1.30;;;17.40;92.60;;;;;;5092511;28;20570;-73
2023/07/20 02:02:38;;;;;;;3.17;1.50;;;17.30;92.60;;;;;;5067195;28;20044;-72
2023/07/20 02:05:04;;;;;;;3.08;1.50;;;17.30;92.70;;;;;;5092378;28;20036;-72
2023/07/20 02:07:29;;;;;;;3.22;1.58;;;17.20;92.60;;;;;;5092671;28;20084;-72
2023/07/20 02:09:55;;;;;;;2.38;1.40;;;17.20;92.60;;;;;;5071033;28;20083;-72
2023/07/20 02:12:20;;;;;;;2.47;1.38;;;17.20;92.70;;;;;;5072455;28;20479;-74
2023/07/20 02:14:47;;;;;;;2.80;1.20;;;17.10;92.70;;;;;;5092301;28;20036;-72
2023/07/20 02:17:13;;;;;;;2.60;1.40;;;17.10;92.60;;;;;;5092367;28;20508;-72
2023/07/20 02:19:40;;;;;;;2.70;1.40;;;17.10;92.70;;;;;;5092228;28;20075;-72
2023/07/20 02:22:06;;;;;;;2.55;1.38;;;17.00;92.80;;;;;;5092773;28;20127;-72
2023/07/20 02:24:33;;;;;;;2.63;1.50;;;17.00;92.80;;;;;;5092038;28;20096;-72
2023/07/20 02:26:58;;;;;;;2.58;1.40;;;17.00;92.80;;;;;;5092818;28;20079;-72
2023/07/20 02:29:24;;;;;;;2.63;1.50;;;17.00;92.90;;;;;;5092240;28;20497;-72
2023/07/20 02:31:50;;;;;;;3.13;1.27;;;16.90;92.90;;;;;;5070834;28;20032;-72
2023/07/20 02:34:15;;;;;;;2.30;1.50;;;16.90;92.90;;;;;;5086313;28;20143;-72
2023/07/20 02:36:42;;;;;;;1.73;1.17;;;16.90;92.90;;;;;;5092380;28;20132;-72
2023/07/20 02:39:08;;;;;;;1.98;1.20;;;16.90;92.80;;;;;;5073278;28;20146;-72
2023/07/20 02:41:34;;;;;;;2.15;1.40;;;16.80;92.80;;;;;;5092297;28;20058;-72
2023/07/20 02:44:01;;;;;;;2.80;1.58;;;16.80;92.80;;;;;;5092325;28;20048;-72
2023/07/20 02:46:26;;;;;;;1.98;1.27;;;16.80;92.90;;;;;;5074147;28;20071;-72
2023/07/20 02:48:52;;;;;;;2.53;1.30;;;16.80;93.00;;;;;;5092394;28;20092;-72
2023/07/20 02:51:18;;;;;;;2.55;1.30;;;16.80;92.90;;;;;;5095701;28;20399;-72
2023/07/20 02:53:43;;;;;;;2.28;1.35;;;16.70;92.90;;;;;;5095649;28;20040;-72
2023/07/20 02:56:09;;;;;;;2.80;1.20;;;16.70;92.90;;;;;;5096232;28;20055;-72
2023/07/20 02:58:38;;;;;;;2.22;1.20;;;16.60;92.90;;;;;;5074517;28;20503;-72
2023/07/20 03:01:04;;;;;;;2.63;1.30;;;16.60;92.90;;;;;;5087381;28;20051;-72
2023/07/20 03:03:29;;;;;;;2.45;1.30;;;16.60;93.00;;;;;;5095522;28;20832;-72
2023/07/20 03:05:59;;;;;;;2.92;1.48;;;16.60;93.00;;;;;;5095580;28;20044;-72
2023/07/20 03:08:24;;;;;;;2.90;1.30;;;16.50;93.00;;;;;;5095702;28;20687;-72
2023/07/20 03:10:50;;;;;;;3.85;1.30;;;16.50;93.10;;;;;;5095446;28;20534;-72
2023/07/20 03:13:16;;;;;;;2.80;1.30;;;16.50;93.00;;;;;;5095712;28;20131;-72
2023/07/20 03:15:41;;;;;;;2.67;1.20;;;16.50;93.10;;;;;;5094791;28;20036;-72
2023/07/20 03:18:07;;;;;;;3.30;1.40;;;16.40;93.40;;;;;;5095647;28;20055;-72
2023/07/20 03:20:35;;;;;;;2.80;1.25;;;16.40;93.10;;;;;;5094945;28;20166;-72
2023/07/20 03:23:00;;;;;;;2.40;1.20;;;16.30;93.10;;;;;;5095989;28;20119;-72
2023/07/20 03:25:26;;;;;;;3.30;1.50;;;16.30;93.10;;;;;;5094969;28;20178;-72
2023/07/20 03:27:51;;;;;;;1.98;1.10;;;16.30;93.10;;;;;;5095559;28;20062;-72
2023/07/20 03:30:17;;;;;;;2.83;1.20;;;16.20;93.10;;;;;;5094383;28;20504;-72
2023/07/20 03:32:43;;;;;;;3.20;1.30;;;16.20;93.20;;;;;;5095234;28;20085;-72
2023/07/20 03:35:08;;;;;;;2.75;1.20;;;16.20;93.20;;;;;;5094691;28;20039;-72
2023/07/20 03:37:36;;;;;;;2.47;1.20;;;16.20;93.20;;;;;;5095365;28;20044;-72
2023/07/20 03:40:02;;;;;;;4.78;1.30;;;16.10;93.20;;;;;;5076579;28;20048;-72
2023/07/20 03:42:28;;;;;;;2.95;1.20;;;16.10;93.10;;;;;;5095267;28;20406;-72
2023/07/20 03:44:54;;;;;;;3.35;1.20;;;16.10;93.10;;;;;;5095044;28;20040;-72
2023/07/20 03:47:19;;;;;;;2.70;1.38;;;16.00;93.10;;;;;;5094162;28;20040;-72
2023/07/20 03:49:45;;;;;;;2.63;1.20;;;16.00;93.00;;;;;;5094387;28;20071;-72
2023/07/20 03:52:10;;;;;;;2.63;1.23;;;15.90;93.00;;;;;;5077052;28;20040;-72
2023/07/20 03:54:36;;;;;;;4.28;1.40;;;15.90;93.00;;;;;;5094290;28;20485;-72
2023/07/20 03:57:02;;;;;;;3.10;1.33;;;15.90;93.10;;;;;;5076674;28;20088;-72
2023/07/20 03:59:27;;;;;;;3.40;1.30;;;15.90;93.20;;;;;;5094636;28;20102;-71
2023/07/20 04:01:53;;;;;;;3.05;1.27;;;15.80;93.20;;;;;;5093388;28;20571;-72
2023/07/20 04:04:19;;;;;;;2.88;1.20;;;15.80;93.10;;;;;;5093109;28;20048;-72
2023/07/20 04:06:45;;;;;;;4.25;1.35;;;15.70;93.10;;;;;;5072086;28;20097;-72
2023/07/20 04:09:11;;;;;;;2.70;1.10;;;15.70;93.10;;;;;;5094730;28;20124;-71
2023/07/20 04:11:37;;;;;;;2.03;1.08;;;15.60;93.10;;;;;;5094311;28;20115;-72
2023/07/20 04:14:02;;;;;;;2.80;1.20;;;15.60;93.10;;;;;;5094155;28;20492;-72
2023/07/20 04:16:28;;;;;;;2.75;1.08;;;15.50;93.00;;;;;;5094053;28;20051;-72
2023/07/20 04:18:57;;;;;;;2.03;1.08;;;15.50;93.10;;;;;;5075712;28;20051;-72
2023/07/20 04:21:25;;;;;;;2.30;1.10;;;15.50;93.00;;;;;;5075976;28;20061;-72
2023/07/20 04:23:51;;;;;;;2.38;1.10;;;15.40;93.10;;;;;;5094501;28;20032;-72
2023/07/20 04:26:16;;;;;;;2.63;1.20;;;15.40;93.00;;;;;;5093486;28;20044;-73
2023/07/20 04:28:42;;;;;;;2.58;1.20;;;15.40;93.00;;;;;;5092353;28;20036;-72
2023/07/20 04:31:12;;;;;;;1.70;1.08;;;15.30;93.10;;;;;;5092848;28;20079;-72
2023/07/20 04:33:39;;;;;;;2.30;1.02;;;15.30;92.90;;;;;;5092153;28;20040;-72
2023/07/20 04:36:04;;;;;;;2.22;1.17;;;15.30;92.90;;;;;;5093239;28;20036;-72
2023/07/20 04:38:30;;;;;;;2.25;1.10;;;15.20;93.20;;;;;;5093632;28;20101;-72
2023/07/20 04:40:55;;;;;;;3.50;1.08;;;15.20;93.20;;;;;;5075572;28;20040;-72
2023/07/20 04:43:21;;;;;;;3.35;1.30;;;15.20;93.40;;;;;;5094139;28;20040;-72
2023/07/20 04:45:47;;;;;;;1.70;1.10;;;15.20;93.50;;;;;;5093836;28;20047;-72
2023/07/20 04:48:15;;;;;;;2.10;1.10;;;15.10;93.40;;;;;;5093670;28;20048;-72
2023/07/20 04:50:42;;;;;;;3.13;0.93;;;15.10;93.40;;;;;;5093771;28;20036;-72
2023/07/20 04:53:10;;;;;;;2.33;1.10;;;15.10;93.40;;;;;;5093655;28;20481;-72
2023/07/20 04:55:36;;;;;;;1.98;0.93;;;15.10;93.50;;;;;;5075338;28;20036;-71
2023/07/20 04:58:03;;;;;;;2.25;1.20;;;15.10;93.60;;;;;;5093728;28;20074;-72
2023/07/20 05:00:32;;;;;;;1.90;1.02;;;15.10;93.50;;;;;;5092957;28;20375;-72
2023/07/20 05:02:58;;;;;;;2.25;1.10;;;15.10;93.50;;;;;;5092631;28;20054;-72
2023/07/20 05:05:24;;;;;;;2.70;1.20;;;15.00;93.50;;;;;;5091934;28;20044;-73
2023/07/20 05:07:49;;;;;;;1.52;0.98;;;15.00;93.50;;;;;;5092848;28;20126;-73
2023/07/20 05:10:15;;;;;;;1.63;0.93;;;15.00;93.50;;;;;;5092977;28;20032;-72
2023/07/20 05:12:40;;;;;;;2.50;1.20;;;15.00;93.40;;;;;;5092332;28;20048;-72
2023/07/20 05:15:06;;;;;;;3.15;1.10;;;15.00;93.40;;;;;;5092851;28;20498;-72
2023/07/20 05:17:32;;;;;;;2.50;1.10;;;15.00;93.30;;;;;;5092824;28;20063;-72
2023/07/20 05:19:58;;;;;;;3.60;1.35;;;15.00;93.60;;;;;;5092529;28;20036;-72
2023/07/20 05:22:24;;;;;;;2.92;1.00;;;15.00;93.70;;;;;;5092698;28;20394;-72
2023/07/20 05:24:50;;;;;;;3.80;1.30;;;15.00;93.80;;;;;;5092372;28;20091;-72
2023/07/20 05:27:16;;;;;;;2.05;0.90;;;14.90;93.90;;;;;;5086202;28;20550;-72
2023/07/20 05:29:45;;;;;;;1.90;1.00;;;14.90;94.00;;;;;;5087959;28;20158;-72
2023/07/20 05:32:12;;;;;;;4.40;1.38;;;15.00;94.00;;;;;;5091957;28;20097;-72
2023/07/20 05:34:37;;;;;;;1.85;0.90;;;14.90;93.90;;;;;;5093046;28;20493;-72
2023/07/20 05:37:03;;;;;;;2.58;1.10;;;14.90;93.70;;;;;;5092264;28;20043;-72
2023/07/20 05:39:29;;;;;;;2.55;1.30;;;14.90;93.80;;;;;;5092935;28;20040;-72
2023/07/20 05:41:54;;;;;;;3.45;1.33;;;14.90;93.70;;;;;;5094284;28;20084;-72
2023/07/20 05:44:23;;;;;;;3.42;0.98;;;14.90;94.00;;;;;;5077981;28;20041;-72
2023/07/20 05:46:48;;;;;;;1.98;1.20;;;14.90;93.80;;;;;;5086998;28;20055;-72
2023/07/20 05:49:14;;;;;;;2.20;1.10;;;15.00;94.00;;;;;;5092555;28;20052;-72
2023/07/20 05:51:40;;;;;;;1.65;0.90;;;15.00;93.80;;;;;;5092498;28;20097;-72
2023/07/20 05:54:06;;;;;;;2.92;1.00;;;15.00;94.00;;;;;;5092674;28;20044;-73
2023/07/20 05:56:31;;;;;;;2.65;1.00;;;15.00;93.90;;;;;;5092298;28;20173;-72
2023/07/20 05:58:57;;;;;;;2.30;0.95;;;15.00;94.00;;;;;;5092268;28;20497;-73
2023/07/20 06:01:23;;;;;;;2.25;0.82;;;15.00;94.00;;;;;;5092859;28;20048;-72
2023/07/20 06:03:48;;;;;;;1.75;0.93;;;15.00;93.80;;;;;;5074514;28;20127;-72
2023/07/20 06:06:14;;;;;;;2.78;0.95;;;15.00;93.70;;;;;;5092419;28;20719;-72
2023/07/20 06:08:40;;;;;;;1.55;0.88;;;15.10;93.80;;;;;;5092628;28;20101;-72
2023/07/20 06:11:06;;;;;;;2.38;0.80;;;15.10;94.10;;;;;;5092568;28;20048;-72
2023/07/20 06:13:31;;;;;;;2.58;0.90;;;15.10;94.10;;;;;;5092235;28;20131;-72
2023/07/20 06:15:57;;;;;;;3.03;1.00;;;15.10;94.00;;;;;;5092538;28;20047;-72
2023/07/20 06:18:23;;;;;;;5.03;1.25;;;15.10;94.30;;;;;;5092497;28;20086;-72
2023/07/20 06:20:52;;;;;;;4.60;1.40;;;15.10;94.90;;;;;;5087120;28;20398;-72
2023/07/20 06:23:19;;;;;;;1.52;0.85;;;15.20;95.20;;;;;;5091704;28;20405;-72
2023/07/20 06:25:45;;;;;;;4.05;1.30;;;15.20;94.60;;;;;;5096636;28;20557;-72
2023/07/20 06:28:11;;;;;;;6.05;1.45;;;15.20;95.00;;;;;;5095387;28;20036;-72
2023/07/20 06:30:37;;;;;;;1.65;0.90;;;15.20;95.70;;;;;;5106494;28;20436;-72
2023/07/20 06:33:03;;;;;;;1.83;0.88;;;15.30;95.50;;;;;;5095662;28;20090;-72
2023/07/20 06:35:28;;;;;;;3.08;1.00;;;15.30;95.00;;;;;;5078121;28;20043;-72
2023/07/20 06:37:54;;;;;;;2.90;0.90;;;15.30;94.90;;;;;;5095548;28;20044;-72
2023/07/20 06:40:20;;;;;;;3.10;0.82;;;15.40;95.00;;;;;;5094174;28;20055;-72
2023/07/20 06:42:46;;;;;;;4.60;1.27;;;15.50;94.70;;;;;;5096129;28;20486;-72
2023/07/20 06:45:12;;;;;;;1.70;0.90;;;15.50;95.40;;;;;;5077291;28;20050;-72
2023/07/20 06:47:41;;;;;;;2.55;0.80;;;15.60;95.50;;;;;;5096188;28;20125;-72
2023/07/20 06:50:07;;;;;;;1.98;0.90;;;15.70;94.90;;;;;;5095535;28;20083;-72
2023/07/20 06:52:33;;;;;;;3.78;1.05;;;15.80;94.70;;;;;;5095479;28;20089;-73
2023/07/20 06:54:59;;;;;;;2.58;1.00;;;15.80;95.10;;;;;;5095663;28;20055;-72
2023/07/20 06:57:25;;;;;;;2.33;1.08;;;15.90;95.30;;;;;;5095131;28;20044;-73
2023/07/20 06:59:51;;;;;;;2.55;0.73;;;15.90;95.10;;;;;;5104146;28;20048;-72
2023/07/20 07:02:17;;;;;;;3.28;1.08;;;16.00;94.90;;;;;;5078250;28;20051;-72
2023/07/20 07:04:43;;;;;;;6.28;1.20;;;16.10;94.70;;;;;;5095340;28;20048;-72
2023/07/20 07:07:09;;;;;;;3.10;0.90;;;16.20;94.70;;;;;;5094394;28;20046;-72
2023/07/20 07:09:35;;;;;;;2.95;0.90;;;16.30;94.80;;;;;;5095099;28;20109;-72
2023/07/20 07:12:01;;;;;;;2.10;0.68;;;16.40;94.80;;;;;;5095223;28;20474;-72
2023/07/20 07:14:27;;;;;;;2.65;0.77;;;16.50;94.60;;;;;;5094729;28;20393;-73
2023/07/20 07:16:52;;;;;;;3.75;1.20;;;16.50;94.50;;;;;;5076531;28;20047;-72
2023/07/20 07:19:18;;;;;;;2.08;0.85;;;16.60;94.80;;;;;;5094857;28;20051;-72
2023/07/20 07:21:43;;;;;;;3.00;0.80;;;16.70;94.60;;;;;;5094791;28;20378;-72
2023/07/20 07:24:09;;;;;;;2.95;0.70;;;16.70;94.50;;;;;;5094744;28;20120;-72
2023/07/20 07:26:39;;;;;;;4.03;0.90;;;16.80;94.20;;;;;;5076638;28;20052;-72
2023/07/20 07:29:04;;;;;;;3.25;0.80;;;16.90;93.90;;;;;;5085388;28;20363;-72
2023/07/20 07:31:30;;;;;;;5.18;1.00;;;17.00;93.80;;;;;;5094456;28;20084;-72
2023/07/20 07:33:56;;;;;;;4.50;0.90;;;17.10;93.70;;;;;;5076147;28;20036;-72
2023/07/20 07:36:24;;;;;;;3.90;0.98;;;17.20;93.50;;;;;;5072775;28;20048;-72
2023/07/20 07:38:50;;;;;;;2.60;0.77;;;17.30;93.40;;;;;;5078199;28;20043;-73
2023/07/20 07:41:15;;;;;;;2.28;0.82;;;17.40;93.00;;;;;;5076148;28;20401;-73
2023/07/20 07:43:41;;;;;;;4.57;0.98;;;17.40;93.10;;;;;;5076794;28;20083;-72
2023/07/20 07:46:06;;;;;;;2.30;0.70;;;17.50;92.30;;;;;;5093892;28;20045;-73
2023/07/20 07:48:32;;;;;;;2.50;0.98;;;17.60;92.30;;;;;;5093945;28;20063;-73
2023/07/20 07:50:58;;;;;;;2.83;0.63;;;17.70;92.40;;;;;;5094588;28;20047;-73
2023/07/20 07:53:25;;;;;;;2.58;0.98;;;17.70;92.40;;;;;;5094600;28;20084;-73
2023/07/20 07:55:52;;;;;;;2.33;0.75;;;17.80;92.10;;;;;;5094834;28;20469;-72
2023/07/20 07:58:17;;;;;;;6.20;0.98;;;17.90;92.00;;;;;;5095028;28;20040;-73
2023/07/20 08:00:44;;;;;;;5.07;1.30;;;18.00;92.10;;;;;;5095040;28;20054;-72
2023/07/20 08:03:09;;;;;;;4.43;0.88;;;18.10;91.40;;;;;;5094826;28;20044;-73
2023/07/20 08:05:35;;;;;;;2.63;0.75;;;18.20;91.00;;;;;;5094338;28;20048;-72
2023/07/20 08:08:04;;;;;;;5.75;1.00;;;18.30;91.40;;;;;;5094649;28;20036;-73
2023/07/20 08:10:30;;;;;;;1.67;0.70;;;18.30;91.20;;;;;;5093833;28;20039;-73
2023/07/20 08:12:56;;;;;;;2.58;0.82;;;18.40;91.50;;;;;;5093930;28;20050;-73
2023/07/20 08:15:22;;;;;;;2.20;0.77;;;18.50;91.10;;;;;;5093348;28;20493;-73
2023/07/20 08:17:48;;;;;;;3.80;0.95;;;18.60;91.40;;;;;;5093794;28;20032;-72
2023/07/20 08:20:16;;;;;;;2.90;0.90;;;18.60;91.30;;;;;;5094180;28;20387;-72
2023/07/20 08:22:41;;;;;;;2.75;0.98;;;18.70;91.10;;;;;;5093697;28;20040;-72
2023/07/20 08:25:08;;;;;;;3.17;0.90;;;18.80;91.10;;;;;;5076293;28;20052;-72
2023/07/20 08:27:34;;;;;;;4.25;0.90;;;18.90;90.90;;;;;;5076576;28;20090;-72
2023/07/20 08:30:00;;;;;;;2.90;0.90;;;18.90;90.70;;;;;;5093380;28;20040;-72
2023/07/20 08:32:26;;;;;;;2.88;0.90;;;19.00;90.50;;;;;;5093277;28;20039;-72
2023/07/20 08:34:52;;;;;;;1.92;0.70;;;19.10;89.20;;;;;;5093266;28;20039;-75
2023/07/20 08:37:17;;;;;;;3.92;0.90;;;19.20;90.60;;;;;;5094172;28;20509;-73
2023/07/20 08:39:43;;;;;;;4.65;1.13;;;19.30;90.10;;;;;;5093821;28;20394;-73
2023/07/20 08:42:10;;;;;;;3.28;0.80;;;19.30;86.60;;;;;;5093298;28;20478;-73
2023/07/20 08:44:38;;;;;;;5.40;1.02;;;19.30;87.40;;;;;;5086163;28;20059;-73
2023/07/20 08:47:05;;;;;;;3.60;1.02;;;19.40;86.80;;;;;;5080922;28;20060;-73
2023/07/20 08:49:35;;;;;;;3.03;1.02;;;19.50;87.40;;;;;;5093263;28;20048;-73
2023/07/20 08:52:01;;;;;;;4.68;1.10;;;19.60;87.10;;;;;;5092772;28;20063;-74
2023/07/20 08:54:33;;;;;;;3.15;1.13;;;19.70;88.70;;;;;;5092552;28;20494;-74
2023/07/20 08:57:02;;;;;;;3.95;1.15;;;19.70;88.20;;;;;;5092660;28;20040;-74
2023/07/20 08:59:30;;;;;;;2.55;1.08;;;19.80;87.90;;;;;;5075416;28;20048;-74
2023/07/20 09:01:57;;;;;;;4.05;1.15;;;19.80;86.70;;;;;;5093620;28;20040;-74
2023/07/20 09:04:24;;;;;;;2.60;0.80;;;19.90;87.00;;;;;;5093141;28;20051;-74
2023/07/20 09:06:50;;;;;;;5.47;1.40;;;20.00;88.80;;;;;;5079826;28;20096;-74
2023/07/20 09:09:16;;;;;;;5.40;1.42;;;20.10;86.20;;;;;;5078079;28;20089;-74
2023/07/20 09:11:42;;;;;;;5.90;1.27;;;20.10;85.40;;;;;;5076403;28;20040;-74
2023/07/20 09:14:09;;;;;;;4.95;1.35;;;20.10;84.40;;;;;;5079756;28;20029;-74
2023/07/20 09:16:55;;;;;;;6.15;1.52;;;20.20;85.10;;;;;;5084532;28;20052;-74
2023/07/20 09:19:22;;;;;;;5.57;1.33;;;20.20;81.40;;;;;;5088482;28;20047;-74
2023/07/20 09:21:52;;;;;;;2.92;1.23;;;20.20;82.40;;;;;;5092945;28;20515;-75
2023/07/20 09:24:18;;;;;;;2.85;1.17;;;20.20;83.70;;;;;;5090419;28;20059;-74
2023/07/20 09:26:48;;;;;;;6.63;1.13;;;20.20;82.30;;;;;;5091480;28;20410;-74
2023/07/20 09:29:14;;;;;;;3.88;1.25;;;20.20;84.20;;;;;;5084879;28;20055;-74
2023/07/20 09:31:40;;;;;;;3.60;1.10;;;20.30;84.70;;;;;;5069586;28;20055;-74
2023/07/20 09:34:07;;;;;;;5.97;1.42;;;20.40;85.90;;;;;;5074619;28;20044;-74
2023/07/20 09:36:36;;;;;;;5.90;1.40;;;20.40;82.70;;;;;;5089849;28;20118;-74
2023/07/20 09:39:03;;;;;;;4.32;1.10;;;20.50;80.90;;;;;;5081835;28;20086;-74
2023/07/20 09:41:29;;;;;;;2.88;1.10;;;20.60;85.40;;;;;;5060236;28;20056;-74
2023/07/20 09:43:55;;;;;;;3.65;1.27;;;20.60;86.30;;;;;;5092284;28;20047;-74
2023/07/20 09:46:21;;;;;;;4.75;1.40;;;20.70;83.90;;;;;;5089228;28;20079;-74
2023/07/20 09:48:53;;;;;;;4.97;1.30;;;20.80;84.60;;;;;;5092161;28;20128;-74
2023/07/20 09:51:23;;;;;;;4.13;1.10;;;20.90;81.40;;;;;;5072959;28;20118;-74
2023/07/20 09:53:49;;;;;;;6.65;1.45;;;21.00;84.70;;;;;;5073757;28;20044;-74
2023/07/20 09:56:16;;;;;;;6.00;1.40;;;21.10;83.00;;;;;;5081148;28;20051;-74
2023/07/20 09:58:43;;;;;;;3.35;1.30;;;21.20;80.90;;;;;;5087158;28;20075;-74
2023/07/20 10:01:11;;;;;;;3.67;0.98;;;21.20;84.70;;;;;;5095500;28;20048;-74
2023/07/20 10:03:38;;;;;;;4.53;1.33;;;21.30;86.20;;;;;;5064300;28;20088;-74
2023/07/20 10:06:09;;;;;;;3.25;1.15;;;21.40;82.10;;;;;;5078842;28;20043;-74
2023/07/20 10:08:42;;;;;;;3.78;1.20;;;21.50;80.70;;;;;;5096057;28;20413;-73
2023/07/20 10:11:08;;;;;;;2.88;1.27;;;21.60;80.40;;;;;;5096377;28;20052;-74
2023/07/20 10:13:38;;;;;;;5.38;1.58;;;21.70;83.30;;;;;;5094557;28;20131;-74
2023/07/20 10:16:10;;;;;;;4.40;1.23;;;21.80;81.20;;;;;;5088966;28;20064;-74
2023/07/20 10:18:54;;;;;;;3.63;1.33;;;21.90;77.70;;;;;;5075930;28;20536;-74
2023/07/20 10:21:22;;;;;;;4.68;1.50;;;22.00;80.00;;;;;;5084081;28;20456;-74
2023/07/20 10:23:49;;;;;;;5.63;1.60;;;22.00;78.20;;;;;;5074505;28;20040;-73
2023/07/20 10:26:15;;;;;;;4.32;1.40;;;22.10;78.10;;;;;;5089607;28;20033;-74
2023/07/20 10:28:41;;;;;;;8.43;1.58;;;22.20;78.60;;;;;;5070757;28;20051;-74
2023/07/20 10:31:13;;;;;;;2.90;1.30;;;22.20;72.70;;;;;;5091458;28;20093;-73
2023/07/20 10:33:39;;;;;;;5.35;1.60;;;22.20;77.00;;;;;;5086562;28;20044;-74
2023/07/20 10:36:05;;;;;;;4.03;1.40;;;22.10;80.40;;;;;;5091596;28;20048;-74
2023/07/20 10:38:46;;;;;;;4.13;1.30;;;22.10;81.50;;;;;;5094543;28;20051;-74
2023/07/20 10:41:39;;;;;;;3.65;1.30;;;22.10;82.20;;;;;;5097140;28;20040;-74
2023/07/20 10:44:07;;;;;;;5.88;1.55;;;22.10;81.20;;;;;;5080975;28;20044;-74
2023/07/20 10:46:44;;;;;;;4.88;1.70;;;22.10;77.50;;;;;;5090025;28;20047;-74
2023/07/20 10:49:12;;;;;;;5.18;1.50;;;22.00;75.40;;;;;;5077495;28;20478;-74
2023/07/20 10:51:48;;;;;;;4.93;1.50;;;22.10;80.80;;;;;;5095472;28;20048;-74
2023/07/20 10:54:17;;;;;;;4.30;1.60;;;22.20;80.20;;;;;;5074309;28;20051;-74
2023/07/20 10:56:49;;;;;;;5.60;1.40;;;22.30;80.00;;;;;;5094407;28;20506;-74
2023/07/20 10:59:35;;;;;;;4.97;1.65;;;22.30;80.50;;;;;;5094641;28;20044;-75
2023/07/20 11:02:06;;;;;;;3.00;1.20;;;22.40;83.50;;;;;;5086470;28;20128;-74
2023/07/20 11:04:53;;;;;;;6.53;1.50;;;22.40;82.40;;;;;;5092593;28;20048;-74
2023/07/20 11:07:40;;;;;;;3.08;1.27;;;22.40;73.00;;;;;;5093086;28;20115;-74
2023/07/20 11:10:18;;;;;;;4.32;1.50;;;22.40;77.10;;;;;;5090097;28;20067;-75
2023/07/20 11:13:15;;;;;;;3.15;1.48;;;22.40;77.00;;;;;;5075601;28;20074;-75
2023/07/20 11:15:56;;;;;;;3.00;1.33;;;22.50;78.80;;;;;;5089574;28;20076;-73
2023/07/20 11:18:26;;;;;;;5.57;1.20;;;22.60;81.80;;;;;;5094224;28;20047;-74
2023/07/20 11:20:52;;;;;;;4.07;1.55;;;22.60;73.50;;;;;;5095125;28;20490;-74
2023/07/20 11:23:19;;;;;;;4.85;1.38;;;22.70;80.00;;;;;;5094589;28;20040;-75
2023/07/20 11:25:45;;;;;;;5.70;1.30;;;22.80;78.60;;;;;;5094882;28;20497;-74
2023/07/20 11:28:11;;;;;;;3.78;1.45;;;22.90;77.00;;;;;;5077326;28;20051;-74
2023/07/20 11:30:38;;;;;;;4.25;1.63;;;22.90;77.50;;;;;;5095203;28;20055;-74
2023/07/20 11:33:05;;;;;;;3.15;1.30;;;22.90;80.30;;;;;;5077344;28;20071;-74
2023/07/20 11:35:35;;;;;;;4.85;1.40;;;23.00;81.50;;;;;;5077432;28;20075;-74
2023/07/20 11:38:01;;;;;;;3.78;1.50;;;23.00;80.80;;;;;;5095414;28;20044;-74
2023/07/20 11:40:26;;;;;;;3.58;1.10;;;23.10;82.00;;;;;;5095197;28;20048;-74
2023/07/20 11:42:53;;;;;;;4.22;1.30;;;23.10;82.70;;;;;;5095145;28;20096;-74
2023/07/20 11:45:20;;;;;;;3.70;1.50;;;23.20;83.00;;;;;;5095070;28;20405;-74
2023/07/20 11:47:45;;;;;;;3.67;1.35;;;23.20;80.40;;;;;;5095196;28;20052;-74
2023/07/20 11:50:13;;;;;;;4.35;1.60;;;23.30;81.80;;;;;;5095244;28;20516;-74
2023/07/20 11:52:40;;;;;;;4.28;1.38;;;23.30;79.00;;;;;;5076865;28;20515;-74
2023/07/20 11:55:06;;;;;;;6.05;1.65;;;23.40;81.20;;;;;;5094980;28;20119;-74
2023/07/20 11:57:32;;;;;;;3.08;1.30;;;23.40;76.90;;;;;;5076731;28;20521;-74
2023/07/20 12:00:01;;;;;;;3.33;1.40;;;23.50;80.80;;;;;;5076963;28;20040;-74
2023/07/20 12:02:28;;;;;;;6.40;1.60;;;23.50;80.20;;;;;;5094978;28;20048;-74
2023/07/20 12:04:57;;;;;;;3.45;1.40;;;23.50;77.40;;;;;;5094776;28;20043;-74
2023/07/20 12:07:27;;;;;;;3.20;1.33;;;23.60;79.00;;;;;;5094662;28;20050;-74
2023/07/20 12:10:26;;;;;;;3.88;1.42;;;23.60;80.70;;;;;;5094615;28;20052;-74
2023/07/20 12:12:52;;;;;;;4.30;1.35;;;23.70;81.00;;;;;;5083708;28;20048;-74
2023/07/20 12:15:22;;;;;;;3.35;1.33;;;23.70;81.10;;;;;;5094692;28;20401;-74
2023/07/20 12:17:52;;;;;;;5.70;1.50;;;23.70;75.30;;;;;;5094568;28;20040;-74
2023/07/20 12:20:31;;;;;;;4.05;1.48;;;23.80;71.20;;;;;;5076299;28;20040;-74
2023/07/20 12:23:06;;;;;;;4.47;1.30;;;23.70;71.80;;;;;;5093581;28;20131;-74
2023/07/20 12:25:42;;;;;;;4.65;1.33;;;23.70;75.00;;;;;;5076630;28;20474;-74
2023/07/20 12:28:17;;;;;;;3.38;1.38;;;23.70;76.80;;;;;;5094273;28;20040;-74
2023/07/20 12:30:44;;;;;;;3.00;1.25;;;23.80;77.80;;;;;;5094222;28;20567;-74
2023/07/20 12:33:11;;;;;;;4.10;1.33;;;23.80;79.10;;;;;;5076056;28;20533;-74
2023/07/20 12:35:37;;;;;;;4.05;1.27;;;23.90;78.80;;;;;;5094338;28;20047;-74
2023/07/20 12:38:02;;;;;;;2.95;1.30;;;23.80;75.80;;;;;;5094224;28;20040;-74
2023/07/20 12:40:28;;;;;;;4.35;1.38;;;23.80;78.00;;;;;;5094152;28;20055;-74
2023/07/20 12:42:54;;;;;;;4.40;1.67;;;23.70;76.70;;;;;;5094054;28;20489;-74
2023/07/20 12:45:20;;;;;;;4.50;1.40;;;23.70;72.10;;;;;;5093918;28;20040;-74
2023/07/20 12:47:45;;;;;;;4.72;1.42;;;23.70;74.60;;;;;;5093834;28;20055;-74
2023/07/20 12:50:11;;;;;;;5.15;1.40;;;23.70;77.20;;;;;;5094105;28;20051;-74